SiteLock Weer in Ekeren en de Haven van Antwerpen - Nearby METAR Reports

Nearby METAR Reports

 

EBAW - Airport Antwerp
Ververst: 22/10/2018 01:20
Zwaar bewolkt
Zwaar bewolkt
 Wind van calm
Wind: Kalm
Temperatuur: 11°C
Dauwpunt: 8°C
Vochtigheid: 82%
Barometer: 1027 hPa
Clouds: Zwaar bewolkt
Visibility: 8 km
Cloud details: Zwaar bewolkt 1463 m
2018/10/21 23:20 EBAW 212320Z AUTO 00000KT 8000 // OVC048/// 11/08 Q1027
EBBR - Brussels National Airport
Ververst: 22/10/2018 01:20
Meestal bewolkt
Meestal bewolkt
 Wind van ZW
Wind: ZW 6 km/h
Temperatuur: 9°C
Dauwpunt: 7°C
Vochtigheid: 87%
Barometer: 1027 hPa
Clouds: Meestal bewolkt
Visibility: 10 km
Cloud details: Meestal bewolkt 1341 m
2018/10/21 23:20 EBBR 212320Z 22003KT 9999 BKN044 09/07 Q1027 NOSIG
 
EBBL - Kleine Brogel Military Airport
Ververst: 22/10/2018 01:25
Zwaar bewolkt
Zwaar bewolkt
 Wind van calm
Wind: Kalm
Temperatuur: 10°C
Dauwpunt: 8°C
Vochtigheid: 88%
Barometer: 1027 hPa
Clouds: Zwaar bewolkt
Visibility: 10 km
Cloud details: Zwaar bewolkt 1524 m
2018/10/21 23:25 EBBL 212325Z AUTO 00000KT 9999 OVC050/// 10/08 Q1027 BLU
EBCI - Charleroi Airport
Ververst: 22/10/2018 01:20
Meestal bewolkt
Meestal bewolkt
 Wind van ZZO
Wind: ZZO 2 km/h
Temperatuur: 11°C
Dauwpunt: 8°C
Vochtigheid: 82%
Barometer: 1027 hPa
Clouds: Meestal bewolkt
Visibility: 10 km
Cloud details: Meestal bewolkt 1280 m
2018/10/21 23:20 EBCI 212320Z 16001KT 9999 BKN042 11/08 Q1027 NOSIG
 
LERS - Reus Airport
Ververst: 22/10/2018 01:30
Helder
Helder
 Wind van NNW
Wind: NNW 4 km/h
Temperatuur: 16°C
Dauwpunt: 13°C
Vochtigheid: 83%
Barometer: 1018 hPa
Clouds: Helder
Visibility: 10 km
2018/10/21 23:30 LERS 212330Z AUTO 33002KT 9999 NCD 16/13 Q1018
LIML - Milan Airport
Ververst: 22/10/2018 01:20
Gedeeltelijk bewolkt
Gedeeltelijk bewolkt
 Wind van NNO
Wind: NNO 9 km/h
Temperatuur: 12°C
Dauwpunt: 6°C
Vochtigheid: 67%
Barometer: 1024 hPa
Clouds: Gedeeltelijk bewolkt
Visibility: 10 km
Cloud details: Gedeeltelijk bewolkt 1829 m
2018/10/21 23:20 LIML 212320Z 03005KT 9999 SCT060 12/06 Q1024 NOSIG
 
LPMA - Madeira Airport
Ververst: 22/10/2018 01:30
Few Clouds
Few Clouds
 Wind van W
Wind: W 7 km/h
Temperatuur: 18°C
Dauwpunt: 15°C
Vochtigheid: 83%
Barometer: 1016 hPa
Clouds: Few Clouds
Visibility: 10 km
Cloud details: Few Clouds 396 m
Few Clouds 488 m
2018/10/21 23:30 LPMA 212330Z 27004KT 9999 FEW013 FEW016CB 18/15 Q1016
LGKO - Kos Airport
Ververst: 22/10/2018 01:20
Few Clouds
Few Clouds
 Wind van N
Wind: N 11 km/h
Temperatuur: 18°C
Dauwpunt: 13°C
Vochtigheid: 73%
Barometer: 1014 hPa
Clouds: Few Clouds
Visibility: 10 km
Cloud details: Few Clouds 549 m
2018/10/21 23:20 LGKO 212320Z 35006KT 9999 FEW018 18/13 Q1014
 
LIRQ - Firenze Airport
Ververst: 22/10/2018 01:20
Helder
Helder
 Wind van NNO
Wind: NNO 22 km/h
Temperatuur: 13°C
Dauwpunt: 4°C
Vochtigheid: 55%
Barometer: 1020 hPa
Overzicht: Helder
Visibility: greater than 10 km
2018/10/21 23:20 LIRQ 212320Z 03012KT 360V060 CAVOK 13/04 Q1020
LIRP - Pisa Airport
Ververst: 22/10/2018 01:15
Helder
Helder
 Wind van ONO
Wind: ONO 33 km/h
Temperatuur: 15°C
Dauwpunt: 5°C
Vochtigheid: 51%
Barometer: 1019 hPa
Overzicht: Helder
Visibility: greater than 10 km
2018/10/21 23:15 LIRP 212315Z 07018KT CAVOK 15/05 Q1019 TEMPO 05025G35KT